»·PEaware :: N105HF KSNA-KBUR

N105HF :: KSNA-KBUR

FLIGHT INFORMATION

Flight Status: Arrived
Operator: Privately registered:
United States
More flights under this callsign
Pilot: Steven Duran D. (32271)
Aircraft: CESSNA 172 SKYHAWK
(C172)
More flights by this aircraft type
Origin: KSNA John Wayne-Orange Co
United States
Destination: KBUR Bob Hope-Burbank
United States
More flights between these airports :: More routes between these airports
Route: SLI V23 POPPR SMO125 SMO SMO311 SILEX
File this flight plan on PilotEdge
Remarks:
Altitude:
(Current/Filed)
4,000ft
Speed:
(Current/Filed)
109kts
Departed: 13-Jan-21 01:16 PM
Arrived: 13-Jan-21 01:55 PM
Distance/Time
Traveled:
40nm/0:39
Distance/Time
To Go:
Arrived

Flight Plot

Page will automatically refresh every two minutes.


Map Options




Map Legend


Flown Route
Filed Route
Departure Airport
Arrival Airport
Navaid (VOR, NDB)
Fix

Horizontal Profiles

Position Reports

Time Latitude Longitude Heading Altitude Ground
Speed
13-Jan-21 12:56 33.675444 -117.871489 222 59ft 0kts
13-Jan-21 12:57 33.675444 -117.871489 222 59ft 0kts
13-Jan-21 12:58 33.675444 -117.871489 222 59ft 0kts
13-Jan-21 12:59 33.675444 -117.871489 222 59ft 0kts
13-Jan-21 13:00 33.675444 -117.871489 222 59ft 0kts
13-Jan-21 13:01 33.675444 -117.871489 222 59ft 0kts
13-Jan-21 13:02 33.675408 -117.871528 222 59ft 0kts
13-Jan-21 13:03 33.675406 -117.871530 222 59ft 0kts
13-Jan-21 13:04 33.675404 -117.871533 222 59ft 0kts
13-Jan-21 13:05 33.675402 -117.871535 222 59ft 0kts
13-Jan-21 13:06 33.675400 -117.871537 222 59ft 0kts
13-Jan-21 13:07 33.675400 -117.871538 222 59ft 0kts
13-Jan-21 13:08 33.675398 -117.871540 222 59ft 0kts
13-Jan-21 13:09 33.675395 -117.871542 222 59ft 0kts
13-Jan-21 13:10 33.675384 -117.871554 219 59ft 0kts
13-Jan-21 13:11 33.675916 -117.870242 27 59ft 12kts
13-Jan-21 13:12 33.679620 -117.867962 27 59ft 12kts
13-Jan-21 13:13 33.680811 -117.866418 114 59ft 0kts
13-Jan-21 13:14 33.680029 -117.866093 208 59ft 13kts
13-Jan-21 13:15 33.664883 -117.878220 229 690ft 79kts
13-Jan-21 13:16 33.651913 -117.897892 231 1677ft 74kts
13-Jan-21 13:17 33.636752 -117.921889 232 2022ft 108kts
13-Jan-21 13:18 33.618977 -117.952444 251 1921ft 117kts
13-Jan-21 13:19 33.619821 -117.987097 275 2651ft 107kts
13-Jan-21 13:20 33.619120 -118.022123 266 3301ft 102kts
13-Jan-21 13:21 33.617835 -118.057511 279 3768ft 112kts
13-Jan-21 13:22 33.635601 -118.087589 317 4022ft 110kts
13-Jan-21 13:23 33.658230 -118.114522 320 3915ft 115kts
13-Jan-21 13:24 33.682041 -118.138297 323 3985ft 109kts
13-Jan-21 13:25 33.706316 -118.160425 329 4044ft 110kts
13-Jan-21 13:26 33.732447 -118.179912 330 4111ft 110kts
13-Jan-21 13:27 33.759258 -118.199683 330 4072ft 115kts
13-Jan-21 13:28 33.785770 -118.221595 326 4059ft 113kts
13-Jan-21 13:29 33.809342 -118.244175 323 4028ft 112kts
13-Jan-21 13:30 33.831237 -118.270827 313 3967ft 111kts
13-Jan-21 13:31 33.854055 -118.296374 329 3938ft 113kts
13-Jan-21 13:32 33.878104 -118.320730 315 3998ft 113kts
13-Jan-21 13:33 33.899839 -118.348688 322 4013ft 113kts
13-Jan-21 13:34 33.925199 -118.371527 325 4031ft 114kts
13-Jan-21 13:35 33.950627 -118.394106 323 4072ft 112kts
13-Jan-21 13:36 33.973748 -118.420187 315 3977ft 108kts
13-Jan-21 13:37 33.995911 -118.445169 322 3926ft 115kts
13-Jan-21 13:38 34.023204 -118.457233 343 4026ft 103kts
13-Jan-21 13:39 34.051863 -118.469569 335 3955ft 113kts
13-Jan-21 13:40 34.077021 -118.491365 309 3959ft 112kts
13-Jan-21 13:42 34.096463 -118.522027 309 3938ft 114kts
13-Jan-21 13:43 34.116429 -118.551909 306 3929ft 116kts
13-Jan-21 13:44 34.135896 -118.580012 316 3894ft 115kts
13-Jan-21 13:45 34.157554 -118.608640 307 3891ft 115kts
13-Jan-21 13:46 34.185381 -118.610160 56 3560ft 114kts
13-Jan-21 13:47 34.198574 -118.576129 65 3108ft 114kts
13-Jan-21 13:48 34.199897 -118.541346 86 2992ft 89kts
13-Jan-21 13:49 34.199310 -118.510986 88 2638ft 92kts
13-Jan-21 13:50 34.198169 -118.480002 84 2186ft 92kts
13-Jan-21 13:51 34.200346 -118.449012 92 1778ft 90kts
13-Jan-21 13:52 34.198279 -118.418797 91 1620ft 87kts
13-Jan-21 13:53 34.198221 -118.389850 90 1200ft 80kts
13-Jan-21 13:54 34.197863 -118.366481 90 734ft 50kts
13-Jan-21 13:55 34.197124 -118.360306 183 724ft 0kts
13-Jan-21 13:56 34.197113 -118.360307 184 724ft 0kts
13-Jan-21 13:57 34.195919 -118.360055 183 724ft 2kts
13-Jan-21 13:58 34.195863 -118.360051 166 724ft 0kts

Navigation Log

Ident Type
Flight plan parsing failed, navigation log unavailable